Time;durP1;ratioP1;P1;durP2;ratioP2;P2;SDS_P1;SDS_P2;PMS_P1;PMS_P2;Temp;Humidity;BMP_temperature;BMP_pressure;BME280_temperature;BME280_humidity;BME280_pressure;Samples;Min_cycle;Max_cycle;Signal;HPM_P1;HPM_P2
2022/11/07 00:00:20;;;;;;;10.48;3.38;;;;;;;24.52;57.47;102021.81;4193159;28;20040;-76
2022/11/07 00:02:24;;;;;;;16.02;3.97;;;;;;;24.50;57.45;102015.63;4197665;28;20098;-76
2022/11/07 00:04:29;;;;;;;9.43;3.00;;;;;;;24.49;57.31;102025.16;4197874;28;20033;-78
2022/11/07 00:06:39;;;;;;;13.60;3.15;;;;;;;24.64;57.44;102044.72;4195665;28;20044;-76
2022/11/07 00:08:41;;;;;;;9.98;3.30;;;;;;;24.65;57.38;102035.25;4197882;28;20028;-74
2022/11/07 00:10:45;;;;;;;13.48;4.30;;;;;;;24.65;57.39;102032.44;4197324;28;20036;-78
2022/11/07 00:12:46;;;;;;;10.23;3.58;;;;;;;24.54;57.50;102016.75;4197720;28;20032;-75
2022/11/07 00:14:47;;;;;;;8.55;3.05;;;;;;;24.59;57.17;102023.19;4191826;28;20028;-76
2022/11/07 00:16:49;;;;;;;12.18;3.28;;;;;;;24.52;57.42;102013.41;4197511;28;20086;-76
2022/11/07 00:18:51;;;;;;;12.23;3.15;;;;;;;24.63;57.46;102031.88;4197554;28;20552;-75
2022/11/07 00:20:53;;;;;;;9.40;3.20;;;;;;;23.88;57.22;101916.84;4197569;28;20040;-78
2022/11/07 00:22:54;;;;;;;10.13;3.15;;;;;;;24.61;57.21;102027.69;4197837;28;20078;-77
2022/11/07 00:24:55;;;;;;;25.20;4.97;;;;;;;24.61;57.17;102034.13;4194441;28;20037;-79
2022/11/07 00:26:56;;;;;;;18.30;3.40;;;;;;;24.63;57.33;102040.25;4191392;28;20036;-77
2022/11/07 00:28:58;;;;;;;9.82;3.33;;;;;;;24.58;57.35;102029.91;4207034;28;20044;-81
2022/11/07 00:33:20;;;;;;;12.35;3.20;;;;;;;24.48;57.04;102007.53;4202833;28;20044;-81
2022/11/07 00:35:21;;;;;;;12.55;3.03;;;;;;;24.46;57.22;102011.72;4200053;28;20028;-81
2022/11/07 00:37:26;;;;;;;9.10;2.78;;;;;;;24.59;57.23;102033.53;4200230;28;20078;-80
2022/11/07 00:39:27;;;;;;;10.07;2.50;;;;;;;24.52;57.17;102025.44;4200313;28;20033;-81
2022/11/07 00:41:29;;;;;;;13.18;2.90;;;;;;;24.59;57.10;102036.34;4200300;28;20074;-81
2022/11/07 00:43:34;;;;;;;13.32;3.00;;;;;;;24.56;57.30;102017.34;4199658;28;20049;-80
2022/11/07 00:45:35;;;;;;;12.00;3.22;;;;;;;24.56;57.07;102014.53;4199851;28;20032;-81
2022/11/07 00:47:36;;;;;;;9.23;3.53;;;;;;;24.55;57.18;102012.81;4198529;28;20040;-81
2022/11/07 00:49:38;;;;;;;12.63;3.13;;;;;;;24.55;56.94;102012.81;4200135;28;20032;-81
2022/11/07 00:51:39;;;;;;;15.02;4.05;;;;;;;24.61;56.82;102010.91;4199952;28;20044;-81
2022/11/07 00:53:41;;;;;;;10.23;2.60;;;;;;;24.59;56.79;102008.34;4199826;28;20549;-84
2022/11/07 00:55:42;;;;;;;9.18;2.60;;;;;;;24.44;56.98;101977.59;4196790;28;20033;-81
2022/11/07 00:57:43;;;;;;;15.65;3.20;;;;;;;24.08;56.77;101928.03;4200474;28;20028;-81
2022/11/07 00:59:47;;;;;;;11.63;2.72;;;;;;;24.48;56.78;101990.75;4201569;28;20081;-81
2022/11/07 01:01:49;;;;;;;9.45;2.63;;;;;;;24.48;57.04;101987.09;4199395;28;20090;-81
2022/11/07 01:06:10;;;;;;;8.27;2.92;;;;;;;24.57;56.74;102011.44;4199783;28;20131;-81
2022/11/07 01:08:12;;;;;;;7.28;2.55;;;;;;;24.57;56.92;102022.63;4199833;28;20097;-81
2022/11/07 01:10:16;;;;;;;8.43;2.80;;;;;;;24.57;56.51;102033.00;4199315;28;20045;-81
2022/11/07 01:12:17;;;;;;;11.07;2.43;;;;;;;24.47;56.58;102019.00;4200316;28;20044;-81
2022/11/07 01:14:21;;;;;;;9.05;2.97;;;;;;;24.56;56.65;102037.75;4198488;28;20133;-81
2022/11/07 01:16:25;;;;;;;9.00;2.50;;;;;;;24.57;56.48;102033.84;4197914;28;20110;-81
2022/11/07 01:18:26;;;;;;;8.63;3.00;;;;;;;24.57;56.50;102044.19;4200068;28;20480;-81
2022/11/07 01:20:27;;;;;;;7.68;2.55;;;;;;;24.55;56.50;102046.41;4205663;28;20322;-81
2022/11/07 01:22:28;;;;;;;6.88;2.22;;;;;;;24.56;56.75;102053.72;4216382;28;20077;-81
2022/11/07 01:24:30;;;;;;;6.85;2.35;;;;;;;24.51;56.53;102050.88;4214050;28;20780;-81
2022/11/07 01:26:31;;;;;;;7.38;2.60;;;;;;;24.56;56.43;102068.53;4215075;28;20442;-81
2022/11/07 01:28:34;;;;;;;6.38;2.28;;;;;;;24.52;56.48;102069.38;4216146;28;20036;-81
2022/11/07 01:30:40;;;;;;;7.82;2.55;;;;;;;24.57;56.53;102074.97;4215965;28;20545;-81
2022/11/07 01:32:41;;;;;;;9.93;3.17;;;;;;;24.54;56.69;102078.31;4215987;28;20032;-79
2022/11/07 01:34:43;;;;;;;10.55;2.53;;;;;;;24.37;56.47;102060.94;4216094;28;20066;-80
2022/11/07 01:36:45;;;;;;;6.15;2.60;;;;;;;24.35;56.47;102067.63;4211050;28;20105;-80
2022/11/07 01:38:47;;;;;;;6.45;2.35;;;;;;;24.56;56.42;102106.88;4185515;28;20075;-81
2022/11/07 01:43:09;;;;;;;5.85;2.00;;;;;;;24.57;56.70;102111.34;4182663;28;20082;-80
2022/11/07 01:45:19;;;;;;;8.50;2.95;;;;;;;24.42;56.20;102091.72;4182085;28;20036;-80
2022/11/07 01:47:22;;;;;;;5.68;2.78;;;;;;;24.55;56.43;102120.00;4182618;28;20083;-81
2022/11/07 01:49:28;;;;;;;7.40;2.25;;;;;;;24.56;56.20;102115.28;4182952;28;20021;-81
2022/11/07 01:51:36;;;;;;;6.68;2.40;;;;;;;24.56;56.39;102120.88;4182774;28;20045;-81
2022/11/07 01:53:37;;;;;;;10.30;2.50;;;;;;;24.46;56.13;102099.28;4188537;28;20066;-81
2022/11/07 01:55:39;;;;;;;7.25;2.47;;;;;;;24.51;56.70;102102.13;4198729;28;20032;-81
2022/11/07 01:57:43;;;;;;;6.82;2.47;;;;;;;24.54;56.63;102118.31;4203661;28;20483;-81
2022/11/07 01:59:45;;;;;;;7.07;2.33;;;;;;;24.54;56.49;102115.53;4215551;28;20105;-81
2022/11/07 02:01:47;;;;;;;7.75;2.50;;;;;;;24.29;56.43;102071.53;4214311;28;20032;-81
2022/11/07 02:04:03;;;;;;;6.78;2.28;;;;;;;24.52;56.63;102112.19;4215204;28;20430;-81
2022/11/07 02:06:13;;;;;;;10.35;2.40;;;;;;;24.50;56.89;102097.63;4215302;28;20040;-81
2022/11/07 02:08:18;;;;;;;8.10;2.03;;;;;;;24.53;56.69;102116.66;4215678;28;20031;-81
2022/11/07 02:10:20;;;;;;;6.72;2.22;;;;;;;24.43;56.53;102087.84;4214201;28;20445;-81
2022/11/07 02:12:24;;;;;;;5.55;2.05;;;;;;;24.48;56.41;102097.06;4215550;28;20028;-79
2022/11/07 02:14:27;;;;;;;5.03;2.15;;;;;;;23.99;56.45;102023.94;4206266;28;20044;-81
2022/11/07 02:16:28;;;;;;;6.30;2.47;;;;;;;24.43;56.46;102093.44;4197699;28;20044;-81
2022/11/07 02:18:31;;;;;;;7.90;2.28;;;;;;;24.56;57.27;102109.69;4198228;28;20565;-82
2022/11/07 02:20:33;;;;;;;6.80;2.70;;;;;;;24.51;56.70;102101.25;4198508;28;20024;-81
2022/11/07 02:22:45;;;;;;;7.38;2.30;;;;;;;24.52;57.42;102102.94;4209362;28;20032;-80
2022/11/07 02:24:55;;;;;;;5.65;2.00;;;;;;;24.52;56.92;102109.38;4215354;28;20105;-81
2022/11/07 02:27:04;;;;;;;6.75;2.05;;;;;;;24.48;57.30;102097.06;4214614;28;20105;-83
2022/11/07 02:29:09;;;;;;;4.75;1.73;;;;;;;24.53;57.33;102108.25;4215452;28;20040;-81
2022/11/07 02:31:10;;;;;;;6.10;1.80;;;;;;;24.55;57.06;102108.81;4206289;28;20087;-82
2022/11/07 02:33:17;;;;;;;6.53;2.08;;;;;;;24.52;57.21;102106.59;4203554;28;20028;-81
2022/11/07 02:35:30;;;;;;;7.72;2.20;;;;;;;24.51;57.32;102102.13;4203188;28;20040;-80
2022/11/07 02:37:37;;;;;;;5.63;1.90;;;;;;;24.32;57.33;102062.56;4200238;28;20098;-83
2022/11/07 02:39:38;;;;;;;3.53;1.83;;;;;;;24.52;57.50;102091.75;4197183;28;20106;-82
2022/11/07 02:41:40;;;;;;;4.35;1.90;;;;;;;24.51;57.33;102101.25;4198818;28;20029;-83
2022/11/07 02:43:51;;;;;;;7.68;2.05;;;;;;;24.45;57.03;102099.56;4198524;28;20101;-83
2022/11/07 02:45:54;;;;;;;6.28;1.70;;;;;;;24.50;56.70;102105.16;4198307;28;20036;-83
2022/11/07 02:47:56;;;;;;;5.20;2.03;;;;;;;24.49;56.92;102109.09;4202945;28;20070;-82
2022/11/07 02:49:57;;;;;;;4.93;1.83;;;;;;;24.47;57.19;102123.38;4201918;28;20090;-80
2022/11/07 02:52:01;;;;;;;5.57;1.77;;;;;;;24.31;57.11;102091.69;4198126;28;20036;-80
2022/11/07 02:54:07;;;;;;;6.40;2.05;;;;;;;24.35;56.95;102104.00;4198170;28;20032;-79
2022/11/07 02:56:09;;;;;;;4.82;2.15;;;;;;;24.47;57.19;102125.34;4195655;28;20499;-75
2022/11/07 02:58:13;;;;;;;5.10;2.10;;;;;;;24.38;57.08;102116.63;4191162;28;20044;-79
2022/11/07 03:00:21;;;;;;;5.97;1.73;;;;;;;24.31;57.02;102097.28;4198082;28;20102;-77
2022/11/07 03:02:23;;;;;;;5.80;1.88;;;;;;;24.50;56.35;102124.75;4198133;28;20032;-77
2022/11/07 03:04:28;;;;;;;6.10;1.98;;;;;;;24.35;56.42;102094.78;4197750;28;20090;-77
2022/11/07 03:06:29;;;;;;;5.53;1.63;;;;;;;24.45;56.54;102102.38;4180935;28;20044;-79
2022/11/07 03:08:30;;;;;;;3.78;1.92;;;;;;;24.53;56.17;102110.22;4179869;28;20427;-79
2022/11/07 03:10:32;;;;;;;3.70;1.70;;;;;;;24.54;55.80;102109.09;4181339;28;20577;-79
2022/11/07 03:12:33;;;;;;;5.53;1.80;;;;;;;24.31;55.82;102069.28;4181327;28;20028;-78
2022/11/07 03:14:34;;;;;;;6.90;1.58;;;;;;;24.51;55.90;102112.44;4181430;28;20068;-78
2022/11/07 03:16:36;;;;;;;5.50;1.88;;;;;;;24.57;55.87;102112.19;4190415;28;20024;-78
2022/11/07 03:18:37;;;;;;;5.85;1.50;;;;;;;24.57;56.05;102100.16;4197341;28;20521;-79
2022/11/07 03:20:38;;;;;;;6.78;1.92;;;;;;;24.39;55.99;102081.09;4197647;28;20165;-79
2022/11/07 03:22:40;;;;;;;5.78;1.80;;;;;;;24.56;56.22;102109.69;4207604;28;20104;-79
2022/11/07 03:24:44;;;;;;;5.45;1.80;;;;;;;24.43;56.19;102088.66;4214129;28;20086;-80
2022/11/07 03:26:45;;;;;;;5.03;1.90;;;;;;;24.45;56.13;102080.81;4214371;28;20024;-78
2022/11/07 03:28:49;;;;;;;4.57;1.40;;;;;;;24.53;56.21;102102.66;4214589;28;20261;-80
2022/11/07 03:30:50;;;;;;;7.40;1.98;;;;;;;24.56;56.21;102098.47;4214229;28;20093;-79
2022/11/07 03:32:53;;;;;;;6.80;1.85;;;;;;;24.55;56.39;102092.03;4213241;28;20223;-79
2022/11/07 03:34:54;;;;;;;6.65;1.77;;;;;;;24.50;55.97;102082.78;4213978;28;20024;-78
2022/11/07 03:36:55;;;;;;;3.40;1.65;;;;;;;24.56;56.09;102092.88;4195956;28;20086;-79
2022/11/07 03:38:56;;;;;;;8.90;2.00;;;;;;;24.50;56.03;102088.38;4194449;28;20036;-79
2022/11/07 03:40:58;;;;;;;6.25;1.73;;;;;;;24.57;56.11;102088.97;4196988;28;20036;-77
2022/11/07 03:42:59;;;;;;;9.55;1.67;;;;;;;24.56;55.91;102096.53;4197598;28;20349;-79
2022/11/07 03:45:00;;;;;;;5.97;1.73;;;;;;;24.58;55.64;102097.06;4197401;28;20037;-79
2022/11/07 03:47:01;;;;;;;4.20;1.90;;;;;;;24.57;55.68;102091.75;4197376;28;20028;-80
2022/11/07 03:49:05;;;;;;;6.30;1.90;;;;;;;24.56;55.75;102092.88;4201824;28;20024;-76
2022/11/07 03:51:08;;;;;;;5.13;2.05;;;;;;;24.45;55.79;102074.38;4183678;28;20044;-80
2022/11/07 03:53:09;;;;;;;5.90;1.90;;;;;;;24.54;55.65;102095.09;4196393;28;20103;-80
2022/11/07 03:55:14;;;;;;;6.32;1.77;;;;;;;24.56;55.63;102095.69;4197054;28;20044;-80
2022/11/07 03:57:15;;;;;;;;;;;;;;;24.54;56.08;102089.50;4213125;28;20601;-80
2022/11/07 03:59:16;;;;;;;6.35;1.90;;;;;;;24.60;55.71;102088.38;4192281;28;19970;-79
2022/11/07 04:01:18;;;;;;;7.13;1.70;;;;;;;24.60;55.38;102088.38;4180989;28;20045;-80
2022/11/07 04:03:19;;;;;;;3.90;1.80;;;;;;;24.48;55.79;102069.09;4199145;28;20413;-79
2022/11/07 04:05:20;;;;;;;5.55;1.60;;;;;;;24.59;55.64;102089.50;4198230;28;20032;-80
2022/11/07 04:07:21;;;;;;;5.93;1.48;;;;;;;24.34;55.43;102049.16;4201680;28;20040;-77
2022/11/07 04:09:23;;;;;;;6.20;2.17;;;;;;;24.51;55.55;102090.91;4205543;28;20036;-77
2022/11/07 04:17:17;;;;;;;3.92;1.33;;;;;;;24.41;55.45;102068.50;4217284;28;20097;-80
2022/11/07 04:18:28;;;;;;;6.88;1.58;;;;;;;24.59;55.75;102092.31;4217323;28;20101;-80
2022/11/07 04:20:33;;;;;;;2.63;1.30;;;;;;;24.56;55.59;102085.34;4217527;28;20032;-80
2022/11/07 04:22:37;;;;;;;3.58;1.55;;;;;;;24.53;55.51;102082.25;4217248;28;20074;-80
2022/11/07 04:24:38;;;;;;;3.50;1.48;;;;;;;24.59;55.69;102092.31;4198494;28;20028;-80
2022/11/07 04:28:59;;;;;;;4.22;1.23;;;;;;;24.58;55.54;102085.03;4218534;28;20093;-80
2022/11/07 04:31:00;;;;;;;3.90;1.70;;;;;;;24.57;55.53;102088.97;4216141;28;20105;-78
2022/11/07 04:33:02;;;;;;;3.72;1.63;;;;;;;24.56;55.84;102088.13;4217012;28;20040;-79
2022/11/07 04:35:04;;;;;;;2.30;1.20;;;;;;;24.57;55.49;102084.19;4215878;28;20040;-77
2022/11/07 04:37:05;;;;;;;4.68;1.63;;;;;;;24.56;55.61;102085.34;4216085;28;20039;-78
2022/11/07 04:39:06;;;;;;;5.25;1.77;;;;;;;24.55;55.57;102080.81;4217114;28;20039;-81
2022/11/07 04:41:17;;;;;;;4.85;1.58;;;;;;;24.54;55.92;102081.13;4213990;28;20073;-81
2022/11/07 04:43:23;;;;;;;4.00;1.63;;;;;;;24.40;55.46;102057.59;4200017;28;20364;-80
2022/11/07 04:45:27;;;;;;;4.65;1.58;;;;;;;24.54;55.47;102084.75;4199529;28;20033;-81
2022/11/07 04:47:33;;;;;;;4.57;1.70;;;;;;;24.48;55.29;102071.88;4200735;28;20434;-78
2022/11/07 04:49:37;;;;;;;3.72;1.70;;;;;;;24.57;55.52;102094.56;4200126;28;20029;-78
2022/11/07 04:51:42;;;;;;;4.60;1.67;;;;;;;24.49;55.22;102083.91;4200020;28;20109;-79
2022/11/07 04:53:46;;;;;;;5.78;2.15;;;;;;;24.58;55.20;102097.06;4200080;28;20266;-77
2022/11/07 04:55:47;;;;;;;4.68;1.70;;;;;;;24.58;55.21;102102.66;4199966;28;20020;-78
2022/11/07 04:57:52;;;;;;;4.78;1.40;;;;;;;24.59;55.17;102097.91;4199878;28;20036;-79
2022/11/07 04:59:53;;;;;;;7.35;1.85;;;;;;;24.56;55.17;102099.31;4198605;28;20036;-79
2022/11/07 05:01:57;;;;;;;3.47;1.33;;;;;;;24.57;55.35;102088.97;4199595;28;20078;-79
2022/11/07 05:03:58;;;;;;;4.13;1.50;;;;;;;24.45;55.24;102063.19;4204221;28;20082;-79
2022/11/07 05:05:59;;;;;;;2.60;1.27;;;;;;;24.61;55.34;102090.09;4213067;28;20036;-80
2022/11/07 05:08:01;;;;;;;4.75;1.52;;;;;;;24.21;55.16;102035.72;4215220;28;20036;-77
2022/11/07 05:10:03;;;;;;;3.22;1.50;;;;;;;24.46;55.24;102070.47;4216487;28;20036;-78
2022/11/07 05:12:05;;;;;;;2.95;1.67;;;;;;;24.55;55.15;102086.41;4216579;28;20069;-78
2022/11/07 05:14:07;;;;;;;3.40;1.30;;;;;;;24.59;55.05;102098.75;4216485;28;20040;-79
2022/11/07 05:16:15;;;;;;;4.55;1.30;;;;;;;24.59;55.23;102089.50;4215878;28;20036;-78
2022/11/07 05:18:19;;;;;;;5.07;1.48;;;;;;;24.56;55.07;102090.09;4216469;28;20044;-78
2022/11/07 05:20:33;;;;;;;3.97;1.23;;;;;;;24.54;55.16;102084.75;4215258;28;20089;-78
2022/11/07 05:24:54;;;;;;;3.38;1.48;;;;;;;24.57;55.36;102094.56;4197596;28;20086;-78
2022/11/07 05:26:55;;;;;;;4.63;1.42;;;;;;;24.57;54.93;102091.75;4200920;28;20028;-78
2022/11/07 05:28:56;;;;;;;3.30;1.38;;;;;;;24.55;55.47;102086.41;4188837;28;20025;-79
2022/11/07 05:31:03;;;;;;;2.60;1.10;;;;;;;24.55;55.29;102080.81;4193547;28;20089;-78
2022/11/07 05:33:07;;;;;;;3.50;1.33;;;;;;;24.57;55.15;102083.38;4191230;28;20074;-78
2022/11/07 05:35:08;;;;;;;4.38;1.67;;;;;;;24.57;55.25;102083.38;4202785;28;20032;-78
2022/11/07 05:37:16;;;;;;;2.78;0.98;;;;;;;24.47;55.35;102069.38;4199070;28;20024;-79
2022/11/07 05:39:17;;;;;;;5.57;1.70;;;;;;;24.57;55.15;102083.38;4202540;28;20103;-78
2022/11/07 05:41:20;;;;;;;6.72;1.58;;;;;;;24.57;55.31;102083.38;4206656;28;20032;-80
2022/11/07 05:43:21;;;;;;;2.80;1.20;;;;;;;24.57;55.16;102083.38;4199031;28;20032;-77
2022/11/07 05:45:23;;;;;;;7.22;1.52;;;;;;;24.57;55.12;102080.56;4198972;28;20098;-77
2022/11/07 05:47:24;;;;;;;4.55;1.30;;;;;;;24.58;55.25;102085.03;4202315;28;20032;-77
2022/11/07 05:49:28;;;;;;;3.65;1.20;;;;;;;24.57;55.10;102077.78;4198469;28;20041;-78
2022/11/07 05:51:29;;;;;;;5.10;1.40;;;;;;;24.58;55.04;102079.44;4199451;28;20032;-78
2022/11/07 05:53:34;;;;;;;3.13;1.00;;;;;;;24.02;54.78;101981.44;4197959;28;20052;-77
2022/11/07 05:55:35;;;;;;;4.90;1.10;;;;;;;24.56;55.01;102067.69;4198969;28;20426;-79
2022/11/07 05:57:36;;;;;;;2.90;1.40;;;;;;;24.62;54.96;102076.94;4198574;28;20100;-78
2022/11/07 05:59:37;;;;;;;5.30;1.38;;;;;;;24.62;55.02;102074.97;4199205;28;20032;-78
2022/11/07 06:01:41;;;;;;;6.93;1.65;;;;;;;24.47;55.06;102056.22;4198965;28;20021;-77
2022/11/07 06:03:43;;;;;;;4.60;1.27;;;;;;;24.60;54.87;102077.19;4199142;28;20556;-76
2022/11/07 06:05:44;;;;;;;3.78;1.30;;;;;;;24.61;54.98;102075.25;4198782;28;20032;-77
2022/11/07 06:07:48;;;;;;;2.15;1.00;;;;;;;24.59;55.01;102070.75;4200966;28;20036;-77
2022/11/07 06:09:52;;;;;;;6.57;1.50;;;;;;;24.60;54.85;102071.59;4198717;28;20129;-78
2022/11/07 06:11:53;;;;;;;5.75;1.63;;;;;;;24.44;54.94;102048.38;4201657;28;20276;-77
2022/11/07 06:13:55;;;;;;;2.47;1.10;;;;;;;24.61;54.75;102072.47;4215679;28;20031;-77
2022/11/07 06:15:57;;;;;;;4.30;1.60;;;;;;;24.61;54.77;102078.06;4215156;28;20036;-76
2022/11/07 06:18:05;;;;;;;2.72;1.38;;;;;;;24.56;54.87;102081.69;4215008;28;20032;-79
2022/11/07 06:20:07;;;;;;;5.05;1.40;;;;;;;24.61;54.99;102078.91;4215151;28;20040;-77
2022/11/07 06:22:08;;;;;;;6.07;1.40;;;;;;;24.48;54.93;102057.06;4215765;28;20055;-77
2022/11/07 06:24:19;;;;;;;3.38;1.42;;;;;;;24.50;54.78;102068.78;4215489;28;20077;-77
2022/11/07 06:26:20;;;;;;;3.63;1.40;;;;;;;24.43;54.95;102057.88;4215051;28;20078;-77
2022/11/07 06:28:21;;;;;;;4.07;1.17;;;;;;;24.60;54.68;102088.38;4215160;28;20028;-76
2022/11/07 06:30:23;;;;;;;8.23;1.30;;;;;;;24.60;54.74;102080.00;4214270;28;20096;-76
2022/11/07 06:32:24;;;;;;;4.13;1.35;;;;;;;24.60;54.90;102080.00;4210692;28;20036;-78
2022/11/07 06:34:28;;;;;;;3.10;1.10;;;;;;;24.60;54.83;102074.41;4197791;28;20036;-77
2022/11/07 06:36:29;;;;;;;4.83;1.30;;;;;;;24.59;54.91;102081.13;4198229;28;20430;-78
2022/11/07 06:38:30;;;;;;;4.45;1.20;;;;;;;24.44;54.65;102050.34;4198349;28;20040;-79
2022/11/07 06:40:32;;;;;;;2.55;0.95;;;;;;;24.53;54.74;102071.88;4197007;28;20040;-77
2022/11/07 06:42:36;;;;;;;5.03;1.65;;;;;;;24.57;54.92;102075.81;4198119;28;20148;-78
2022/11/07 06:44:37;;;;;;;3.38;1.40;;;;;;;24.58;54.80;102077.47;4198219;28;20529;-78
2022/11/07 06:46:38;;;;;;;7.15;1.23;;;;;;;24.56;55.15;102067.69;4202944;28;20063;-77
2022/11/07 06:48:40;;;;;;;2.78;1.10;;;;;;;24.57;55.01;102072.16;4199248;28;20491;-77
2022/11/07 06:50:41;;;;;;;5.13;1.20;;;;;;;24.58;54.71;102068.25;4202410;28;20117;-76
2022/11/07 06:52:42;;;;;;;3.97;1.40;;;;;;;24.57;54.83;102066.56;4201013;28;20404;-76
2022/11/07 06:54:44;;;;;;;4.60;1.30;;;;;;;24.57;54.75;102066.56;4197965;28;20040;-77
2022/11/07 06:56:50;;;;;;;2.95;1.10;;;;;;;24.55;55.00;102060.41;4197831;28;20037;-78
2022/11/07 06:58:52;;;;;;;4.47;1.35;;;;;;;24.58;54.72;102065.44;4196989;28;20090;-77
2022/11/07 07:00:58;;;;;;;5.05;1.42;;;;;;;24.57;54.88;102069.38;4198227;28;20032;-77
2022/11/07 07:03:03;;;;;;;2.45;1.25;;;;;;;24.57;54.79;102069.38;4198058;28;20040;-77
2022/11/07 07:05:05;;;;;;;4.53;1.30;;;;;;;24.40;54.78;102046.41;4198173;28;20086;-78
2022/11/07 07:07:06;;;;;;;4.18;1.23;;;;;;;24.56;54.87;102070.50;4197666;28;20079;-77
2022/11/07 07:09:08;;;;;;;3.58;1.30;;;;;;;24.37;54.78;102032.97;4198095;28;20070;-77
2022/11/07 07:11:11;;;;;;;1.73;1.10;;;;;;;24.58;54.74;102068.25;4197790;28;20093;-77
2022/11/07 07:13:13;;;;;;;1.73;1.08;;;;;;;24.57;54.85;102067.41;4196426;28;20044;-78
2022/11/07 07:15:17;;;;;;;2.13;1.10;;;;;;;24.57;54.87;102067.41;4197496;28;20040;-78
2022/11/07 07:17:19;;;;;;;2.13;0.93;;;;;;;24.57;54.55;102066.56;4197876;28;20070;-78
2022/11/07 07:19:20;;;;;;;3.17;1.08;;;;;;;24.41;54.73;102043.31;4198190;28;20089;-77
2022/11/07 07:21:32;;;;;;;3.67;1.30;;;;;;;24.58;54.79;102073.84;4213654;28;20071;-77
2022/11/07 07:23:34;;;;;;;5.47;1.70;;;;;;;24.60;54.61;102071.59;4214516;28;20101;-78
2022/11/07 07:25:35;;;;;;;5.22;1.17;;;;;;;24.47;54.69;102049.78;4214337;28;20418;-78
2022/11/07 07:27:36;;;;;;;4.93;1.35;;;;;;;24.60;54.61;102071.59;4214634;28;20020;-77
2022/11/07 07:29:38;;;;;;;3.20;1.20;;;;;;;24.59;54.58;102075.53;4211110;28;20048;-78
2022/11/07 07:31:39;;;;;;;4.60;1.48;;;;;;;24.59;54.92;102075.53;4200769;28;20069;-78
2022/11/07 07:33:45;;;;;;;3.22;1.25;;;;;;;24.47;54.78;102056.22;4197712;28;20038;-78
2022/11/07 07:35:46;;;;;;;4.50;1.30;;;;;;;24.49;54.53;102053.13;4201992;28;20045;-78
2022/11/07 07:37:57;;;;;;;3.22;1.00;;;;;;;24.56;54.84;102065.75;4197034;28;20094;-78
2022/11/07 07:39:58;;;;;;;4.30;0.90;;;;;;;24.59;54.54;102069.91;4208293;28;20118;-79
2022/11/07 07:41:59;;;;;;;3.42;1.00;;;;;;;24.58;54.54;102062.66;4197478;28;20098;-77
2022/11/07 07:44:00;;;;;;;5.32;1.33;;;;;;;24.58;54.78;102062.66;4201409;28;20041;-78
2022/11/07 07:46:05;;;;;;;3.35;1.20;;;;;;;24.58;54.83;102054.25;4203110;28;20078;-77
2022/11/07 07:48:06;;;;;;;5.63;1.00;;;;;;;24.41;55.09;102028.50;4203350;28;20037;-78
2022/11/07 07:50:14;;;;;;;3.20;1.23;;;;;;;24.58;54.75;102045.88;4203359;28;20062;-77
2022/11/07 07:52:15;;;;;;;1.98;0.93;;;;;;;24.59;54.88;102053.13;4203380;28;20041;-78
2022/11/07 07:54:16;;;;;;;3.78;1.13;;;;;;;24.59;54.70;102047.53;4210045;28;20105;-78
2022/11/07 07:56:18;;;;;;;5.00;1.10;;;;;;;24.59;54.74;102041.94;4216674;28;20101;-78
2022/11/07 07:58:19;;;;;;;3.60;1.00;;;;;;;24.58;54.83;102034.66;4200512;28;20577;-78
2022/11/07 08:00:20;;;;;;;3.35;1.27;;;;;;;24.58;54.74;102040.25;4202328;28;20052;-76
2022/11/07 08:02:22;;;;;;;3.33;1.13;;;;;;;24.59;54.67;102050.34;4202970;28;20081;-77
2022/11/07 08:04:23;;;;;;;4.13;1.23;;;;;;;24.57;54.78;102042.22;4203251;28;20036;-78
2022/11/07 08:06:27;;;;;;;4.20;1.67;;;;;;;24.58;54.57;102045.88;4202789;28;20029;-78
2022/11/07 08:08:28;;;;;;;3.95;1.23;;;;;;;24.44;54.68;102019.56;4203078;28;20029;-78
2022/11/07 08:10:36;;;;;;;3.45;0.85;;;;;;;24.57;54.79;102045.03;4203537;28;20094;-78
2022/11/07 08:12:48;;;;;;;2.35;0.85;;;;;;;24.58;54.62;102034.66;4201570;28;20044;-78
2022/11/07 08:15:01;;;;;;;4.55;1.20;;;;;;;24.43;54.50;102017.88;4202983;28;20034;-79
2022/11/07 08:17:03;;;;;;;4.35;1.67;;;;;;;24.58;54.56;102045.88;4202668;28;20032;-76
2022/11/07 08:19:13;;;;;;;3.00;1.50;;;;;;;24.56;54.50;102043.34;4202868;28;20032;-78
2022/11/07 08:21:14;;;;;;;3.03;1.05;;;;;;;24.56;54.70;102034.13;4202899;28;20536;-78
2022/11/07 08:23:19;;;;;;;4.72;1.20;;;;;;;24.59;54.69;102041.94;4202855;28;20098;-78
2022/11/07 08:25:20;;;;;;;4.03;1.02;;;;;;;24.59;54.52;102036.34;4202607;28;20041;-78
2022/11/07 08:27:21;;;;;;;4.38;1.15;;;;;;;24.57;54.50;102031.03;4202902;28;20533;-77
2022/11/07 08:29:22;;;;;;;4.72;1.15;;;;;;;24.60;54.32;102032.41;4203330;28;20097;-78
2022/11/07 08:31:24;;;;;;;3.13;0.95;;;;;;;24.60;54.44;102029.63;4202615;28;20102;-79
2022/11/07 08:33:26;;;;;;;4.03;1.27;;;;;;;24.59;54.67;102025.97;4202944;28;20353;-78
2022/11/07 08:35:27;;;;;;;2.65;0.85;;;;;;;24.41;54.44;102001.34;4202468;28;20024;-78
2022/11/07 08:37:28;;;;;;;2.90;1.05;;;;;;;24.52;54.49;102025.44;4202822;28;20073;-78
2022/11/07 08:39:29;;;;;;;4.00;1.30;;;;;;;24.56;54.68;102032.16;4202748;28;20055;-78
2022/11/07 08:41:34;;;;;;;2.85;0.88;;;;;;;24.58;54.48;102037.47;4202173;28;20387;-78
2022/11/07 08:43:35;;;;;;;3.47;1.17;;;;;;;24.56;54.66;102034.13;4201982;28;20094;-78
2022/11/07 08:45:39;;;;;;;3.42;1.10;;;;;;;24.60;54.51;102029.63;4208867;28;20032;-78
2022/11/07 08:47:40;;;;;;;3.72;0.93;;;;;;;24.60;54.74;102026.81;4204940;28;20048;-76
2022/11/07 08:49:41;;;;;;;4.90;1.33;;;;;;;24.59;54.45;102028.78;4202642;28;20098;-77
2022/11/07 08:51:43;;;;;;;4.43;1.00;;;;;;;24.56;54.45;102026.56;4202559;28;20021;-78
2022/11/07 08:53:44;;;;;;;2.38;0.90;;;;;;;24.56;54.36;102025.72;4202690;28;20036;-77
2022/11/07 08:55:45;;;;;;;4.65;0.90;;;;;;;24.59;54.33;102025.16;4200253;28;20361;-77
2022/11/07 08:57:47;;;;;;;4.13;1.30;;;;;;;24.54;54.70;102023.19;4200024;28;20032;-77
2022/11/07 08:59:48;;;;;;;4.30;1.30;;;;;;;24.58;54.66;102023.47;4200698;28;20476;-77
2022/11/07 09:01:51;;;;;;;2.25;0.95;;;;;;;24.58;54.55;102029.06;4200030;28;20041;-77
2022/11/07 09:03:53;;;;;;;4.00;1.30;;;;;;;24.55;54.39;102024.03;4196498;28;20036;-78
2022/11/07 09:05:56;;;;;;;2.42;1.00;;;;;;;24.59;54.40;102033.53;4182476;28;20091;-78
2022/11/07 09:08:00;;;;;;;3.88;1.00;;;;;;;24.52;54.44;102019.00;4199085;28;20032;-78
2022/11/07 09:10:05;;;;;;;3.13;1.02;;;;;;;24.57;54.63;102033.84;4203107;28;20036;-77
2022/11/07 09:12:06;;;;;;;2.53;0.98;;;;;;;24.29;54.38;101989.59;4199287;28;20082;-77
2022/11/07 09:14:08;;;;;;;2.08;0.90;;;;;;;24.58;54.37;102037.47;4199899;28;20028;-78
2022/11/07 09:16:16;;;;;;;5.50;1.20;;;;;;;24.58;54.61;102040.25;4198866;28;20097;-77
2022/11/07 09:18:18;;;;;;;4.05;1.15;;;;;;;24.53;54.44;102032.72;4199784;28;20078;-77
2022/11/07 09:20:19;;;;;;;3.83;1.10;;;;;;;24.58;54.40;102037.47;4200053;28;20041;-77
2022/11/07 09:22:21;;;;;;;3.40;1.20;;;;;;;24.48;54.40;102029.06;4199627;28;20036;-76
2022/11/07 09:24:25;;;;;;;2.65;1.05;;;;;;;24.37;54.58;102013.38;4199609;28;20036;-77
2022/11/07 09:26:27;;;;;;;4.00;1.25;;;;;;;24.50;54.63;102033.25;4199008;28;20086;-77
2022/11/07 09:28:31;;;;;;;4.57;1.30;;;;;;;24.41;54.44;102022.91;4199448;28;20044;-78
2022/11/07 09:30:32;;;;;;;3.40;0.93;;;;;;;24.35;54.49;102013.66;4199581;28;20102;-77
2022/11/07 09:32:34;;;;;;;3.95;1.02;;;;;;;24.46;54.51;102031.28;4199766;28;20117;-78
2022/11/07 09:34:35;;;;;;;3.05;1.20;;;;;;;24.48;54.70;102034.66;4199342;28;20040;-78
2022/11/07 09:36:36;;;;;;;4.95;1.20;;;;;;;24.57;54.53;102050.63;4208887;28;20028;-78
2022/11/07 09:38:38;;;;;;;2.78;1.30;;;;;;;24.57;54.58;102047.00;4216197;28;20023;-78
2022/11/07 09:41:22;;;;;;;5.22;1.23;;;;;;;24.55;54.54;102040.81;4215499;28;19920;-78
2022/11/07 09:44:12;;;;;;;1.52;0.80;;;;;;;24.36;54.65;102009.72;4216142;28;20028;-77
2022/11/07 09:47:00;;;;;;;3.33;1.00;;;;;;;24.56;54.49;102045.31;4164200;28;20041;-78
2022/11/07 09:49:39;;;;;;;3.97;1.10;;;;;;;24.57;54.52;102044.19;4211920;28;20109;-77